Time;durP1;ratioP1;P1;durP2;ratioP2;P2;SDS_P1;SDS_P2;PMS_P1;PMS_P2;Temp;Humidity;BMP_temperature;BMP_pressure;BME280_temperature;BME280_humidity;BME280_pressure;Samples;Min_cycle;Max_cycle;Signal;HPM_P1;HPM_P2
2023/10/29 00:00:31;;;;;;;3.37;1.73;;;;;;;11.70;100.00;96731.56;5075249;28;20208;-73
2023/10/29 00:02:57;;;;;;;3.00;1.80;;;;;;;11.69;100.00;96735.28;5076292;28;20294;-73
2023/10/29 00:05:24;;;;;;;3.87;2.10;;;;;;;11.67;100.00;96729.41;5076125;28;20574;-73
2023/10/29 00:07:50;;;;;;;1.70;1.50;;;;;;;11.62;100.00;96742.69;5075754;28;20729;-73
2023/10/29 00:10:17;;;;;;;3.33;2.07;;;;;;;11.63;100.00;96736.34;5076231;28;20208;-73
2023/10/29 00:12:44;;;;;;;2.53;1.50;;;;;;;11.61;100.00;96730.44;5074313;28;20259;-73
2023/10/29 00:15:11;;;;;;;2.47;1.60;;;;;;;11.60;100.00;96741.34;5075818;28;20224;-73
2023/10/29 00:17:37;;;;;;;3.67;1.67;;;;;;;11.54;100.00;96743.16;5075829;28;20289;-73
2023/10/29 00:20:06;;;;;;;3.50;1.80;;;;;;;11.59;100.00;96742.38;5058204;28;20216;-73
2023/10/29 00:22:32;;;;;;;4.13;1.53;;;;;;;11.70;100.00;96742.22;5075075;28;20217;-73
2023/10/29 00:24:59;;;;;;;5.23;1.97;;;;;;;11.66;100.00;96735.03;5074711;28;20200;-73
2023/10/29 00:27:26;;;;;;;4.87;1.60;;;;;;;11.71;100.00;96740.38;5075836;28;20234;-73
2023/10/29 00:29:52;;;;;;;5.00;1.83;;;;;;;11.74;100.00;96740.66;5075707;28;20213;-73
2023/10/29 00:32:19;;;;;;;3.90;1.80;;;;;;;11.71;100.00;96732.38;5074629;28;20659;-72
2023/10/29 00:34:49;;;;;;;2.23;1.50;;;;;;;11.81;100.00;96738.56;5075504;28;20277;-72
2023/10/29 00:37:17;;;;;;;3.47;1.50;;;;;;;11.84;100.00;96730.06;5075323;28;20746;-72
2023/10/29 00:39:43;;;;;;;2.37;1.50;;;;;;;11.81;100.00;96733.25;5075630;28;20249;-72
2023/10/29 00:42:13;;;;;;;3.43;1.40;;;;;;;11.81;100.00;96735.09;5074237;28;20210;-72
2023/10/29 00:44:39;;;;;;;3.70;1.50;;;;;;;11.75;100.00;96726.28;5074853;28;20624;-72
2023/10/29 00:47:06;;;;;;;4.63;1.60;;;;;;;11.81;100.00;96738.56;5075381;28;20210;-72
2023/10/29 00:49:34;;;;;;;2.60;1.80;;;;;;;11.80;100.00;96736.16;5075108;28;20210;-72
2023/10/29 00:52:01;;;;;;;9.40;2.00;;;;;;;11.82;100.00;96740.16;5074432;28;20299;-72
2023/10/29 00:54:28;;;;;;;2.17;1.40;;;;;;;11.92;100.00;96728.75;5057659;28;20228;-72
2023/10/29 00:56:55;;;;;;;2.53;1.40;;;;;;;12.03;100.00;96727.75;5075173;28;20203;-72
2023/10/29 00:59:22;;;;;;;2.30;1.40;;;;;;;12.04;100.00;96732.81;5075045;28;20280;-72
2023/10/29 01:01:49;;;;;;;2.50;1.20;;;;;;;12.10;100.00;96736.28;5073146;28;20604;-72
2023/10/29 01:04:16;;;;;;;1.70;1.40;;;;;;;12.08;100.00;96723.22;5075530;28;20247;-72
2023/10/29 01:06:44;;;;;;;2.47;1.10;;;;;;;12.09;100.00;96724.03;5074914;28;20670;-72
2023/10/29 01:09:11;;;;;;;2.17;1.23;;;;;;;12.10;100.00;96699.81;5075081;28;20231;-72
2023/10/29 01:11:38;;;;;;;1.60;1.30;;;;;;;12.14;100.00;96695.56;5073872;28;20216;-72
2023/10/29 01:14:04;;;;;;;3.70;1.20;;;;;;;12.12;100.00;96710.22;5074865;28;20319;-72
2023/10/29 01:16:31;;;;;;;2.53;1.20;;;;;;;12.05;100.00;96710.44;5074894;28;20215;-72
2023/10/29 01:18:59;;;;;;;2.13;1.20;;;;;;;12.07;100.00;96712.84;5074430;28;20253;-72
2023/10/29 01:21:27;;;;;;;2.77;1.30;;;;;;;12.11;100.00;96719.28;5074447;28;20238;-72
2023/10/29 01:23:54;;;;;;;1.27;1.10;;;;;;;12.17;100.00;96713.66;5073717;28;20225;-72
2023/10/29 01:26:21;;;;;;;1.60;1.10;;;;;;;12.28;100.00;96710.00;5074757;28;20212;-72
2023/10/29 01:28:47;;;;;;;1.60;1.17;;;;;;;12.34;100.00;96703.63;5074561;28;20231;-72
2023/10/29 01:31:14;;;;;;;2.33;1.50;;;;;;;12.40;100.00;96699.09;5074532;28;20208;-72
2023/10/29 01:33:40;;;;;;;3.23;1.33;;;;;;;12.51;100.00;96698.06;5074195;28;20227;-72
2023/10/29 01:36:07;;;;;;;2.33;1.23;;;;;;;12.43;100.00;96687.94;5073718;28;20204;-72
2023/10/29 01:38:34;;;;;;;1.20;1.10;;;;;;;12.34;100.00;96682.28;5074043;28;20741;-73
2023/10/29 01:41:01;;;;;;;1.83;1.03;;;;;;;12.27;100.00;96687.09;5074364;28;20209;-73
2023/10/29 01:43:27;;;;;;;2.57;1.40;;;;;;;12.22;100.00;96678.28;5074307;28;20208;-73
2023/10/29 01:45:53;;;;;;;3.43;1.10;;;;;;;12.23;100.00;96670.03;5074351;28;20220;-73
2023/10/29 01:48:21;;;;;;;1.70;1.20;;;;;;;12.14;100.00;96655.59;5073018;28;20585;-73
2023/10/29 01:50:50;;;;;;;4.67;1.20;;;;;;;12.12;100.00;96665.72;5074191;28;20215;-73
2023/10/29 01:53:16;;;;;;;1.93;1.10;;;;;;;12.18;100.00;96654.03;5074112;28;20235;-73
2023/10/29 01:55:43;;;;;;;1.33;1.10;;;;;;;12.17;100.00;96641.75;5073122;28;20234;-73
2023/10/29 01:58:09;;;;;;;3.03;1.10;;;;;;;12.07;100.00;96648.94;5073921;28;20227;-73
2023/10/29 02:00:35;;;;;;;2.47;1.20;;;;;;;12.05;100.00;96649.19;5073565;28;20582;-73
2023/10/29 02:03:02;;;;;;;1.83;1.30;;;;;;;12.02;100.00;96660.34;5073708;28;20568;-73
2023/10/29 02:05:28;;;;;;;3.20;1.33;;;;;;;11.82;100.00;96649.66;5073361;28;20211;-73
2023/10/29 02:07:55;;;;;;;4.07;1.90;;;;;;;11.69;100.00;96651.97;5073957;28;20238;-73
2023/10/29 02:10:21;;;;;;;3.97;1.40;;;;;;;11.64;100.00;96643.97;5073958;28;20215;-73
2023/10/29 02:12:47;;;;;;;1.93;1.50;;;;;;;11.51;100.00;96639.88;5073840;28;20345;-73
2023/10/29 02:15:14;;;;;;;2.70;1.70;;;;;;;11.49;100.00;96634.00;5071844;28;20231;-73
2023/10/29 02:17:40;;;;;;;3.03;1.47;;;;;;;11.38;100.00;96629.69;5062320;28;20221;-73
2023/10/29 02:20:09;;;;;;;2.13;1.33;;;;;;;11.43;100.00;96621.75;5073793;28;20285;-73
2023/10/29 02:22:35;;;;;;;1.70;1.00;;;;;;;11.39;100.00;96622.53;5060118;28;20230;-73
2023/10/29 02:25:02;;;;;;;2.67;1.10;;;;;;;11.37;100.00;96612.13;5053508;28;20204;-72
2023/10/29 02:27:28;;;;;;;1.90;1.10;;;;;;;11.48;100.00;96615.66;5053416;28;20229;-72
2023/10/29 02:29:55;;;;;;;1.87;1.00;;;;;;;11.53;100.00;96621.00;5054617;28;20200;-72
2023/10/29 02:32:22;;;;;;;3.37;1.30;;;;;;;11.57;100.00;96619.41;5071802;28;20207;-72
2023/10/29 02:34:48;;;;;;;2.57;1.00;;;;;;;11.64;100.00;96623.47;5073553;28;20306;-72
2023/10/29 02:37:15;;;;;;;3.10;1.20;;;;;;;11.65;100.00;96625.06;5072166;28;20215;-72
2023/10/29 02:39:41;;;;;;;3.10;1.13;;;;;;;11.72;100.00;96622.97;5073606;28;20210;-72
2023/10/29 02:42:09;;;;;;;2.47;1.40;;;;;;;11.78;100.00;96619.28;5073172;28;20710;-72
2023/10/29 02:44:35;;;;;;;1.47;1.00;;;;;;;11.91;100.00;96626.78;5073162;28;20680;-72
2023/10/29 02:47:01;;;;;;;2.20;1.23;;;;;;;11.91;100.00;96628.63;5072338;28;20653;-72
2023/10/29 02:49:28;;;;;;;2.13;1.03;;;;;;;12.05;100.00;96624.41;5073399;28;20215;-73
2023/10/29 02:51:54;;;;;;;3.20;1.00;;;;;;;12.05;100.00;96622.56;5073090;28;20670;-73
2023/10/29 02:54:20;;;;;;;2.37;1.10;;;;;;;12.13;100.00;96627.38;5073412;28;20227;-73
2023/10/29 02:56:47;;;;;;;1.23;1.00;;;;;;;12.09;100.00;96628.97;5073428;28;20204;-73
2023/10/29 02:59:13;;;;;;;1.47;1.17;;;;;;;12.09;100.00;96626.28;5071989;28;20242;-73
2023/10/29 03:01:39;;;;;;;1.60;1.10;;;;;;;12.12;100.00;96619.63;5070730;28;20214;-73
2023/10/29 03:04:06;;;;;;;1.30;1.10;;;;;;;12.21;100.00;96610.06;5073237;28;20209;-73
2023/10/29 03:06:33;;;;;;;2.37;1.33;;;;;;;12.21;100.00;96612.72;5073022;28;20670;-73
2023/10/29 03:08:59;;;;;;;1.87;0.93;;;;;;;12.22;100.00;96611.66;5073103;28;20220;-73
2023/10/29 03:11:25;;;;;;;2.63;0.90;;;;;;;12.04;100.00;96607.66;5072395;28;20228;-73
2023/10/29 03:13:52;;;;;;;2.73;1.03;;;;;;;12.05;100.00;96619.06;5073155;28;20204;-73
2023/10/29 03:16:18;;;;;;;2.63;0.90;;;;;;;12.03;100.00;96619.34;5073141;28;20211;-73
2023/10/29 03:18:44;;;;;;;1.07;0.70;;;;;;;11.96;100.00;96613.47;5072838;28;20247;-73
2023/10/29 03:21:11;;;;;;;3.37;0.90;;;;;;;12.02;100.00;96609.75;5072898;28;20207;-73
2023/10/29 03:23:37;;;;;;;1.47;0.93;;;;;;;12.01;100.00;96610.00;5072064;28;20208;-73
2023/10/29 03:26:04;;;;;;;1.80;0.90;;;;;;;12.00;100.00;96608.41;5073113;28;20210;-73
2023/10/29 03:28:30;;;;;;;2.57;1.00;;;;;;;11.99;100.00;96612.97;5072717;28;20239;-73
2023/10/29 03:30:57;;;;;;;1.73;1.17;;;;;;;11.94;100.00;96606.81;5072746;28;20573;-73
2023/10/29 03:33:23;;;;;;;1.90;1.00;;;;;;;11.84;100.00;96615.56;5072831;28;20205;-73
2023/10/29 03:35:49;;;;;;;1.40;1.00;;;;;;;11.88;100.00;96611.31;5071089;28;20224;-73
2023/10/29 03:38:16;;;;;;;1.67;1.10;;;;;;;11.74;100.00;96610.19;5072901;28;20227;-73
2023/10/29 03:40:42;;;;;;;1.60;1.10;;;;;;;11.74;100.00;96612.06;5072979;28;20208;-73
2023/10/29 03:43:09;;;;;;;1.60;1.03;;;;;;;11.77;100.00;96624.84;5072568;28;20213;-73
2023/10/29 03:45:36;;;;;;;1.10;0.93;;;;;;;11.88;100.00;96629.13;5071893;28;20201;-73
2023/10/29 03:48:02;;;;;;;3.97;1.33;;;;;;;11.89;100.00;96623.56;5068487;28;20227;-73
2023/10/29 03:50:29;;;;;;;1.37;0.90;;;;;;;12.01;100.00;96621.47;5075736;28;20217;-73
2023/10/29 03:52:55;;;;;;;1.23;0.93;;;;;;;12.02;100.00;96627.63;5076518;28;20227;-73
2023/10/29 03:55:21;;;;;;;1.30;0.93;;;;;;;12.03;100.00;96627.31;5076288;28;20221;-73
2023/10/29 03:57:48;;;;;;;1.70;0.90;;;;;;;11.98;100.00;96632.63;5075369;28;20235;-73
2023/10/29 04:00:14;;;;;;;2.67;2.43;;;;;;;11.96;100.00;96623.31;5076036;28;20222;-73
2023/10/29 04:02:41;;;;;;;1.50;0.97;;;;;;;11.95;100.00;96629.72;5075082;28;20245;-73
2023/10/29 04:05:07;;;;;;;2.97;0.80;;;;;;;12.10;100.00;96635.06;5074372;28;20299;-73
2023/10/29 04:07:34;;;;;;;2.27;0.87;;;;;;;12.09;100.00;96639.63;5070859;28;20616;-72
2023/10/29 04:10:00;;;;;;;1.80;1.07;;;;;;;12.08;100.00;96627.34;5062134;28;20207;-72
2023/10/29 04:12:27;;;;;;;1.67;1.10;;;;;;;12.09;100.00;96631.63;5056031;28;20209;-72
2023/10/29 04:14:54;;;;;;;1.00;0.90;;;;;;;11.96;100.00;96626.78;5075468;28;20220;-72
2023/10/29 04:17:21;;;;;;;0.97;0.90;;;;;;;11.89;100.00;96623.56;5075498;28;20718;-72
2023/10/29 04:19:47;;;;;;;1.93;0.90;;;;;;;11.83;100.00;96621.94;5075780;28;20261;-72
2023/10/29 04:22:14;;;;;;;3.97;1.03;;;;;;;11.77;100.00;96624.84;5075763;28;20204;-72
2023/10/29 04:24:40;;;;;;;3.60;1.10;;;;;;;11.67;100.00;96625.59;5075385;28;20200;-72
2023/10/29 04:27:07;;;;;;;1.53;0.80;;;;;;;11.72;100.00;96622.97;5075688;28;20210;-72
2023/10/29 04:29:33;;;;;;;1.13;0.87;;;;;;;11.68;100.00;96613.09;5075987;28;20215;-72
2023/10/29 04:31:59;;;;;;;1.17;0.80;;;;;;;11.77;100.00;96601.69;5075526;28;20215;-72
2023/10/29 04:34:26;;;;;;;1.37;0.90;;;;;;;11.84;100.00;96601.47;5075541;28;20223;-72
2023/10/29 04:36:52;;;;;;;0.93;0.80;;;;;;;11.92;100.00;96595.59;5075517;28;20211;-72
2023/10/29 04:39:19;;;;;;;2.07;1.10;;;;;;;11.99;100.00;96598.81;5075056;28;20714;-72
2023/10/29 04:41:47;;;;;;;1.27;0.90;;;;;;;12.00;100.00;96603.09;5075307;28;20212;-73
2023/10/29 04:44:13;;;;;;;4.23;0.90;;;;;;;11.93;100.00;96600.66;5074934;28;20211;-72
2023/10/29 04:46:39;;;;;;;2.17;1.00;;;;;;;11.94;100.00;96601.47;5074304;28;20227;-72
2023/10/29 04:49:06;;;;;;;1.87;0.90;;;;;;;11.89;100.00;96596.16;5075324;28;20223;-72
2023/10/29 04:51:32;;;;;;;2.03;1.03;;;;;;;11.81;100.00;96601.97;5074914;28;20670;-72
2023/10/29 04:53:59;;;;;;;1.37;1.10;;;;;;;11.73;100.00;96594.47;5065303;28;20211;-73
2023/10/29 04:56:26;;;;;;;2.13;1.50;;;;;;;11.67;100.00;96593.66;5066809;28;20327;-73
2023/10/29 04:58:53;;;;;;;2.30;1.33;;;;;;;11.59;100.00;96596.00;5071857;28;20235;-72
2023/10/29 05:01:19;;;;;;;2.30;1.20;;;;;;;11.52;100.00;96585.59;5074861;28;20229;-72
2023/10/29 05:03:45;;;;;;;2.20;1.03;;;;;;;11.59;100.00;96588.00;5074981;28;20204;-72
2023/10/29 05:06:20;;;;;;;1.00;0.90;;;;;;;11.63;100.00;96589.13;5074598;28;20204;-72
2023/10/29 05:08:46;;;;;;;1.53;1.10;;;;;;;11.67;100.00;96579.56;5074044;28;20230;-72
2023/10/29 05:11:13;;;;;;;1.67;1.03;;;;;;;11.83;100.00;96571.34;5072529;28;20203;-72
2023/10/29 05:13:40;;;;;;;2.33;1.10;;;;;;;12.03;100.00;96575.94;5074684;28;20208;-72
2023/10/29 05:16:08;;;;;;;1.40;0.90;;;;;;;12.04;100.00;96567.69;5074707;28;20231;-72
2023/10/29 05:18:34;;;;;;;3.87;0.90;;;;;;;12.11;100.00;96570.09;5074619;28;20227;-72
2023/10/29 05:21:01;;;;;;;1.73;1.10;;;;;;;12.12;100.00;96561.81;5074720;28;20214;-72
2023/10/29 05:23:27;;;;;;;1.03;0.90;;;;;;;12.00;100.00;96561.28;5073910;28;20208;-72
2023/10/29 05:25:54;;;;;;;7.83;1.30;;;;;;;12.02;100.00;96564.47;5074790;28;20569;-72
2023/10/29 05:28:20;;;;;;;2.60;1.30;;;;;;;11.74;100.00;96566.78;5074522;28;20246;-72
2023/10/29 05:30:47;;;;;;;2.57;1.20;;;;;;;11.68;100.00;96566.00;5074261;28;20690;-72
2023/10/29 05:33:13;;;;;;;1.93;0.93;;;;;;;11.78;100.00;96570.53;5074509;28;20207;-72
2023/10/29 05:35:39;;;;;;;1.27;0.97;;;;;;;11.88;100.00;96565.22;5073403;28;20706;-72
2023/10/29 05:38:06;;;;;;;0.90;0.90;;;;;;;12.01;100.00;96562.06;5073768;28;20592;-72
2023/10/29 05:40:32;;;;;;;0.93;0.80;;;;;;;12.02;100.00;96572.47;5074762;28;20551;-72
2023/10/29 05:42:58;;;;;;;1.37;0.97;;;;;;;12.03;100.00;96582.03;5074257;28;20211;-72
2023/10/29 05:45:25;;;;;;;1.57;0.90;;;;;;;12.04;100.00;96578.34;5074063;28;20203;-72
2023/10/29 05:47:51;;;;;;;0.70;0.70;;;;;;;12.07;100.00;96582.34;5073853;28;20224;-72
2023/10/29 05:50:17;;;;;;;2.40;0.90;;;;;;;12.08;100.00;96584.72;5073117;28;20223;-72
2023/10/29 05:52:45;;;;;;;0.80;0.80;;;;;;;12.11;100.00;96586.88;5074099;28;20208;-72
2023/10/29 05:55:12;;;;;;;1.50;0.87;;;;;;;12.15;100.00;96587.13;5073779;28;20312;-72
2023/10/29 05:57:38;;;;;;;1.03;0.90;;;;;;;12.14;100.00;96561.56;5074119;28;20224;-72
2023/10/29 06:00:05;;;;;;;0.73;0.73;;;;;;;12.12;100.00;96575.13;5073954;28;20228;-72
2023/10/29 06:02:33;;;;;;;3.00;1.10;;;;;;;12.07;100.00;96571.69;5074044;28;20200;-72
2023/10/29 06:04:59;;;;;;;3.00;1.10;;;;;;;12.04;100.00;96578.34;5073060;28;20200;-72
2023/10/29 06:07:25;;;;;;;0.70;0.70;;;;;;;12.07;100.00;96577.00;5074101;28;20233;-73
2023/10/29 06:09:52;;;;;;;0.80;0.70;;;;;;;12.08;100.00;96576.72;5073753;28;20204;-73
2023/10/29 06:12:18;;;;;;;1.17;0.90;;;;;;;12.07;100.00;96579.69;5071961;28;20543;-73
2023/10/29 06:14:45;;;;;;;1.13;1.03;;;;;;;12.03;100.00;96591.91;5073717;28;20262;-73
2023/10/29 06:17:12;;;;;;;2.23;1.10;;;;;;;11.93;100.00;96592.69;5072968;28;20207;-73
2023/10/29 06:19:38;;;;;;;1.77;1.00;;;;;;;11.83;100.00;96594.50;5073515;28;20219;-73
2023/10/29 06:22:05;;;;;;;2.30;0.90;;;;;;;11.73;100.00;96600.63;5073739;28;20212;-72
2023/10/29 06:24:32;;;;;;;1.50;1.00;;;;;;;11.80;100.00;96608.38;5073697;28;20220;-72
2023/10/29 06:26:58;;;;;;;2.73;1.20;;;;;;;11.80;100.00;96605.69;5071606;28;20214;-72
2023/10/29 06:29:25;;;;;;;3.23;1.40;;;;;;;11.81;100.00;96600.13;5073458;28;20750;-72
2023/10/29 06:31:51;;;;;;;2.20;1.27;;;;;;;11.85;100.00;96600.38;5073660;28;20575;-72
2023/10/29 06:34:17;;;;;;;1.30;1.10;;;;;;;11.87;100.00;96604.41;5073260;28;20567;-72
2023/10/29 06:36:44;;;;;;;1.30;0.70;;;;;;;11.92;100.00;96620.38;5072961;28;20703;-72
2023/10/29 06:39:10;;;;;;;2.93;0.90;;;;;;;11.99;100.00;96628.13;5072380;28;20262;-72
2023/10/29 06:41:36;;;;;;;1.03;1.00;;;;;;;12.03;100.00;96626.53;5073130;28;20205;-72
2023/10/29 06:44:03;;;;;;;1.33;0.90;;;;;;;12.07;100.00;96641.72;5073267;28;20203;-72
2023/10/29 06:46:29;;;;;;;1.43;0.80;;;;;;;12.18;100.00;96648.69;5073057;28;20201;-72
2023/10/29 06:48:55;;;;;;;2.07;0.87;;;;;;;12.21;100.00;96653.47;5073273;28;20228;-72
2023/10/29 06:51:22;;;;;;;2.20;1.00;;;;;;;12.26;100.00;96652.72;5072655;28;20201;-72
2023/10/29 06:53:48;;;;;;;0.87;0.70;;;;;;;12.24;100.00;96658.28;5073362;28;20207;-72
2023/10/29 06:56:14;;;;;;;1.50;0.80;;;;;;;12.18;100.00;96664.69;5073427;28;20234;-72
2023/10/29 06:58:41;;;;;;;0.93;0.90;;;;;;;12.19;100.00;96673.47;5073399;28;20231;-72
2023/10/29 07:01:08;;;;;;;2.40;0.80;;;;;;;12.18;100.00;96688.66;5072940;28;20693;-72
2023/10/29 07:03:36;;;;;;;1.93;0.90;;;;;;;12.20;100.00;96693.72;5073346;28;20212;-72
2023/10/29 07:06:14;;;;;;;1.50;1.00;;;;;;;12.19;100.00;96690.25;5072147;28;20665;-72
2023/10/29 07:08:40;;;;;;;1.40;0.90;;;;;;;12.16;100.00;96692.66;5072714;28;20242;-72
2023/10/29 07:11:07;;;;;;;1.67;1.10;;;;;;;12.11;100.00;96685.44;5073026;28;20209;-72
2023/10/29 07:13:34;;;;;;;2.37;1.20;;;;;;;12.10;100.00;96688.34;5072986;28;20204;-72
2023/10/29 07:16:02;;;;;;;2.67;1.50;;;;;;;12.11;100.00;96689.97;5072804;28;20224;-72
2023/10/29 07:18:29;;;;;;;1.40;1.13;;;;;;;12.16;100.00;96690.75;5071109;28;20228;-72
2023/10/29 07:20:56;;;;;;;1.30;1.20;;;;;;;12.15;100.00;96691.84;5072693;28;20212;-72
2023/10/29 07:23:23;;;;;;;1.20;1.10;;;;;;;12.21;100.00;96695.31;5075379;28;20265;-72
2023/10/29 07:25:50;;;;;;;1.53;1.43;;;;;;;12.41;100.00;96687.38;5076904;28;20200;-72
2023/10/29 07:28:18;;;;;;;3.57;1.40;;;;;;;12.23;100.00;96688.66;5076770;28;20228;-72
2023/10/29 07:30:44;;;;;;;3.27;1.70;;;;;;;12.24;100.00;96694.78;5076699;28;20201;-72
2023/10/29 07:33:11;;;;;;;3.83;1.10;;;;;;;12.21;100.00;96701.44;5075738;28;20205;-72
2023/10/29 07:35:38;;;;;;;3.80;1.60;;;;;;;12.22;100.00;96697.72;5076301;28;20225;-72
2023/10/29 07:38:07;;;;;;;1.43;1.30;;;;;;;12.32;100.00;96704.94;5076049;28;20224;-72
2023/10/29 07:40:33;;;;;;;1.40;1.17;;;;;;;12.32;100.00;96707.59;5076218;28;20215;-72
2023/10/29 07:43:00;;;;;;;1.40;1.00;;;;;;;12.43;100.00;96717.25;5076150;28;20231;-72
2023/10/29 07:45:26;;;;;;;3.33;1.33;;;;;;;12.49;100.00;96727.66;5075325;28;20548;-73
2023/10/29 07:47:53;;;;;;;2.37;0.90;;;;;;;13.00;100.00;96728.56;5076107;28;20225;-73
2023/10/29 07:50:21;;;;;;;1.43;0.97;;;;;;;13.09;100.00;96718.97;5077253;28;20227;-73
2023/10/29 07:52:47;;;;;;;1.40;1.30;;;;;;;13.10;100.00;96716.03;5074016;28;20209;-73
2023/10/29 07:55:14;;;;;;;2.30;1.00;;;;;;;13.26;100.00;96722.16;5069759;28;20622;-73
2023/10/29 07:57:40;;;;;;;1.50;0.87;;;;;;;13.23;100.00;96728.84;5068608;28;20710;-73
2023/10/29 08:00:10;;;;;;;2.03;1.40;;;;;;;13.23;100.00;96739.50;5075198;28;20212;-73
2023/10/29 08:02:37;;;;;;;2.60;1.60;;;;;;;13.36;100.00;96746.19;5063384;28;20200;-73
2023/10/29 08:05:04;;;;;;;1.60;1.23;;;;;;;13.58;100.00;96744.03;5075664;28;20207;-73
2023/10/29 08:07:30;;;;;;;2.10;1.80;;;;;;;13.68;100.00;96738.66;5065508;28;20229;-73
2023/10/29 08:09:57;;;;;;;1.33;1.00;;;;;;;13.76;100.00;96744.28;5055920;28;20655;-73
2023/10/29 08:12:24;;;;;;;1.77;1.27;;;;;;;13.80;100.00;96752.53;5067500;28;20204;-73
2023/10/29 08:14:50;;;;;;;2.40;1.00;;;;;;;13.84;100.00;96756.28;5075786;28;20215;-73
2023/10/29 08:17:17;;;;;;;0.90;0.83;;;;;;;13.92;100.00;96750.34;5075558;28;20583;-73
2023/10/29 08:19:44;;;;;;;0.97;0.90;;;;;;;14.01;100.00;96744.19;5075190;28;20231;-73
2023/10/29 08:22:11;;;;;;;1.43;1.10;;;;;;;14.05;100.00;96749.78;5075423;28;20215;-73
2023/10/29 08:24:38;;;;;;;1.23;0.90;;;;;;;14.09;100.00;96735.63;5071053;28;20197;-73
2023/10/29 08:27:06;;;;;;;0.77;0.77;;;;;;;14.08;100.00;96743.91;5055559;28;20197;-73
2023/10/29 08:29:34;;;;;;;1.23;1.00;;;;;;;14.11;100.00;96749.50;5068677;28;20240;-73
2023/10/29 08:32:01;;;;;;;2.30;1.20;;;;;;;14.20;100.00;96763.94;5075525;28;20209;-73
2023/10/29 08:34:27;;;;;;;1.80;0.80;;;;;;;14.21;100.00;96764.75;5074074;28;20663;-73
2023/10/29 08:36:54;;;;;;;1.03;0.80;;;;;;;14.25;100.00;96774.59;5075000;28;20586;-73
2023/10/29 08:39:21;;;;;;;3.13;1.13;;;;;;;14.22;100.00;96772.50;5075208;28;20235;-73
2023/10/29 08:41:48;;;;;;;1.83;1.00;;;;;;;14.27;100.00;96775.16;5075167;28;20205;-73
2023/10/29 08:44:15;;;;;;;1.67;0.90;;;;;;;14.27;100.00;96775.16;5074933;28;20212;-73
2023/10/29 08:46:42;;;;;;;1.83;0.90;;;;;;;14.35;100.00;96790.63;5074976;28;20201;-73
2023/10/29 08:49:08;;;;;;;1.23;1.00;;;;;;;14.35;100.00;96781.81;5074651;28;20228;-73
2023/10/29 08:51:35;;;;;;;1.30;1.17;;;;;;;14.32;100.00;96775.13;5074625;28;20295;-73
2023/10/29 08:54:02;;;;;;;3.90;1.23;;;;;;;14.30;100.00;96774.59;5074505;28;20204;-73
2023/10/29 08:56:30;;;;;;;2.33;1.80;;;;;;;14.27;100.00;96777.00;5074494;28;20793;-73
2023/10/29 08:58:56;;;;;;;3.70;2.20;;;;;;;14.24;100.00;96765.00;5074828;28;20225;-73
2023/10/29 09:01:22;;;;;;;2.77;1.33;;;;;;;14.23;100.00;96752.72;5074712;28;20303;-73
2023/10/29 09:03:49;;;;;;;3.53;1.40;;;;;;;14.30;100.00;96758.53;5072972;28;20200;-73
2023/10/29 09:06:15;;;;;;;3.20;1.20;;;;;;;14.34;100.00;96746.22;5072633;28;20292;-73
2023/10/29 09:08:42;;;;;;;3.00;1.23;;;;;;;14.44;100.00;96748.88;5073905;28;20411;-73
2023/10/29 09:11:14;;;;;;;2.00;1.30;;;;;;;14.53;100.00;96743.75;5073691;28;20208;-73
2023/10/29 09:13:40;;;;;;;4.10;1.70;;;;;;;14.62;100.00;96740.25;5074532;28;20652;-73
2023/10/29 09:16:07;;;;;;;4.27;1.30;;;;;;;14.73;100.00;96736.41;5072650;28;20225;-73
2023/10/29 09:18:33;;;;;;;4.13;1.63;;;;;;;14.85;100.00;96739.56;5073400;28;20224;-73
2023/10/29 09:21:00;;;;;;;2.53;1.70;;;;;;;14.88;100.00;96752.38;5073631;28;20205;-73
2023/10/29 09:23:27;;;;;;;1.40;1.20;;;;;;;14.92;100.00;96745.38;5073731;28;20211;-73
2023/10/29 09:25:53;;;;;;;3.37;1.60;;;;;;;14.94;100.00;96745.94;5069402;28;20250;-73
2023/10/29 09:28:20;;;;;;;2.63;1.23;;;;;;;14.90;100.00;96728.00;5065785;28;20217;-73
2023/10/29 09:30:47;;;;;;;2.17;1.30;;;;;;;14.69;100.00;96729.22;5073456;28;20200;-73
2023/10/29 09:33:15;;;;;;;4.67;1.13;;;;;;;14.56;100.00;96717.25;5073106;28;20204;-73
2023/10/29 09:35:42;;;;;;;1.60;1.50;;;;;;;14.44;100.00;96706.09;5071025;28;20209;-73
2023/10/29 09:38:09;;;;;;;2.70;1.70;;;;;;;14.38;100.00;96706.41;5070554;28;20223;-73
2023/10/29 09:40:37;;;;;;;1.17;1.07;;;;;;;14.33;100.00;96715.22;5073153;28;20200;-73
2023/10/29 09:43:05;;;;;;;1.80;1.30;;;;;;;14.26;100.00;96708.59;5073916;28;20209;-73
2023/10/29 09:45:33;;;;;;;2.53;1.30;;;;;;;14.18;100.00;96709.13;5071507;28;20254;-73
2023/10/29 09:48:00;;;;;;;3.00;1.60;;;;;;;14.12;100.00;96705.69;5072627;28;20649;-73
2023/10/29 09:50:27;;;;;;;2.43;1.07;;;;;;;14.19;100.00;96711.53;5071598;28;20205;-73
2023/10/29 09:52:54;;;;;;;3.33;1.50;;;;;;;14.23;100.00;96703.78;5073190;28;20204;-73
2023/10/29 09:55:21;;;;;;;1.77;1.30;;;;;;;14.33;100.00;96711.78;5072846;28;20396;-73
2023/10/29 09:57:48;;;;;;;2.00;1.43;;;;;;;14.32;100.00;96702.94;5070915;28;20236;-73
2023/10/29 10:00:16;;;;;;;2.20;1.40;;;;;;;14.36;100.00;96695.16;5064527;28;20213;-73
2023/10/29 10:02:53;;;;;;;1.60;1.40;;;;;;;14.40;100.00;96699.72;5070548;28;20605;-73
2023/10/29 10:05:21;;;;;;;1.80;1.40;;;;;;;14.43;100.00;96688.44;5057481;28;20203;-73
2023/10/29 10:07:47;;;;;;;2.10;1.23;;;;;;;14.44;100.00;96681.22;5057921;28;20221;-73
2023/10/29 10:10:14;;;;;;;2.87;1.60;;;;;;;14.42;100.00;96670.03;5065511;28;20654;-73
2023/10/29 10:12:51;;;;;;;3.37;1.57;;;;;;;14.41;100.00;96679.91;5073232;28;20212;-73
2023/10/29 10:15:19;;;;;;;5.10;1.73;;;;;;;14.37;100.00;96675.38;5053418;28;20215;-73
2023/10/29 10:17:49;;;;;;;3.00;1.60;;;;;;;14.37;100.00;96673.50;5053188;28;20236;-73
2023/10/29 10:20:20;;;;;;;1.70;1.37;;;;;;;14.35;100.00;96677.53;5052921;28;20729;-73
2023/10/29 10:22:55;;;;;;;2.73;1.73;;;;;;;14.34;100.00;96667.94;5053252;28;20217;-73
2023/10/29 10:25:24;;;;;;;2.27;1.30;;;;;;;14.45;100.00;96664.91;5056387;28;20198;-73
2023/10/29 10:27:52;;;;;;;2.33;1.60;;;;;;;14.38;100.00;96669.75;5072955;28;20221;-73
2023/10/29 10:30:31;;;;;;;3.17;1.40;;;;;;;14.35;100.00;96664.16;5073366;28;20246;-73
2023/10/29 10:33:19;;;;;;;4.47;1.57;;;;;;;14.40;100.00;96667.63;5072940;28;20215;-73
2023/10/29 10:35:51;;;;;;;2.43;1.30;;;;;;;14.43;100.00;96655.56;5073083;28;20204;-73
2023/10/29 10:38:22;;;;;;;3.70;1.60;;;;;;;14.44;100.00;96660.66;5072682;28;20711;-73
2023/10/29 10:40:57;;;;;;;5.93;1.40;;;;;;;14.46;100.00;96658.50;5073073;28;20204;-73
2023/10/29 10:43:24;;;;;;;2.23;1.40;;;;;;;14.46;100.00;96661.16;5073294;28;20184;-73
2023/10/29 10:45:52;;;;;;;5.67;1.80;;;;;;;14.51;100.00;96660.34;5073351;28;20274;-73
2023/10/29 10:48:19;;;;;;;2.87;1.40;;;;;;;14.60;100.00;96664.81;5073056;28;20254;-73
2023/10/29 10:50:46;;;;;;;2.93;1.63;;;;;;;14.72;100.00;96653.75;5072893;28;20236;-73
2023/10/29 10:53:14;;;;;;;1.90;1.30;;;;;;;14.79;100.00;96654.25;5071695;28;20204;-73
2023/10/29 10:55:41;;;;;;;2.77;1.60;;;;;;;14.75;100.00;96654.00;5072843;28;20200;-73
2023/10/29 10:58:11;;;;;;;1.87;1.37;;;;;;;14.82;100.00;96645.66;5074980;28;20228;-73
2023/10/29 11:00:38;;;;;;;2.27;1.33;;;;;;;14.83;100.00;96655.31;5076726;28;20247;-73
2023/10/29 11:03:04;;;;;;;2.50;1.40;;;;;;;14.85;100.00;96653.94;5076695;28;20609;-73
2023/10/29 11:05:33;;;;;;;2.90;1.40;;;;;;;14.84;100.00;96663.03;5076845;28;20208;-73
2023/10/29 11:08:00;;;;;;;2.50;1.60;;;;;;;14.85;100.00;96663.84;5076335;28;20232;-73
2023/10/29 11:10:27;;;;;;;2.97;1.30;;;;;;;14.81;100.00;96660.94;5060329;28;20550;-73
2023/10/29 11:12:54;;;;;;;3.33;1.50;;;;;;;14.85;100.00;96645.13;5076356;28;20600;-73
2023/10/29 11:15:22;;;;;;;5.37;1.43;;;;;;;14.85;100.00;96648.59;5076830;28;20209;-73
2023/10/29 11:18:04;;;;;;;2.47;1.63;;;;;;;14.87;100.00;96646.44;5074169;28;20258;-73
2023/10/29 11:20:41;;;;;;;4.10;1.93;;;;;;;14.91;100.00;96636.75;5076167;28;20205;-73
2023/10/29 11:23:13;;;;;;;2.97;1.63;;;;;;;14.98;100.00;96628.41;5075457;28;20203;-73